Huvudsida
METAR-TAF:

METAR-TAF

Flygplatser :

Trondheim, Norge

Trondheims flygplats. Værnes

latitud: 63-28N, longitud: 010-56E, höjd: 1 m

Aktuellt väderrapport

Denna rapport gjordes för 36 minuter sedan, klockan 17:50 UTC
Vind 8 kt från ost, varierande mellan ost/nordost och sydost
Temperatur 12°C
Fuktighet 40%
Tryck 1008 hPa
Sikt 10 km eller mer
Inga moln under 1 500 m eller inga cumulonimbus

METAR: ENVA 221750Z 10008KT 070V130 CAVOK 12/M01 Q1008 RMK WIND 670FT 14010KT

Tid: 20:26 (18:26 UTC)

Väderprognos

Prognos gäller från 22 kl. 18 UTC till 23 kl. 18 UTC
Vind 8 kt från ost
Sikt 10 km eller mer
Spridda moln på en höjd av 4000 ft
Sannolikhet 40% :
Temporärt
från 22 kl. 18 UTC till 23 kl. 18 UTC
Vind 15 kt från syd/sydost i byarna ända upp till 25 kt
Temporärt
från 23 kl. 15 UTC till 23 kl. 18 UTC
Sikt: 4000 m
Brutna moln på en höjd av 1400 ft
regn, fuktdis

TAF: ENVA 2218/2318 10008KT 9999 SCT040 PROB40 TEMPO 2218/2318 16015G25KT TEMPO 2315/2318 4000 RA BR BKN014

Aktuella väderrapporter och prognoser från 4000 flygplatser (METAR- och TAF-rapporter).

De tillgängliga stationerna syns som gula och röda prickar på kartan.

För musen över prickarna för att se namnen på stationerna.

Klicka sedan för att få väderrapporter och prognoser.

För att ändra kartan: Klicka på de gröna knapparna med ett svart kors på för att zooma in; den gröna knappen med ett streck på för att zooma ut; eller på de gröna pilarna för angränsande kartor.


METAR-TAF: